createdAt,value
2022-12-15T00:00:36.001Z,1003.31
2022-12-15T00:01:36.321Z,1003.20
2022-12-15T00:02:36.801Z,1003.24
2022-12-15T00:03:37.457Z,1003.21
2022-12-15T00:04:37.382Z,1003.18
2022-12-15T00:05:37.759Z,1003.19
2022-12-15T00:06:38.160Z,1003.21
2022-12-15T00:07:38.531Z,1003.25
2022-12-15T00:08:38.875Z,1003.26
2022-12-15T00:09:39.247Z,1003.16
2022-12-15T00:10:40.482Z,1003.21
2022-12-15T00:11:39.969Z,1003.17
2022-12-15T00:12:40.356Z,1003.14
2022-12-15T00:13:40.702Z,1003.17
2022-12-15T00:14:41.086Z,1003.09
2022-12-15T00:15:41.489Z,1003.08
2022-12-15T00:16:41.813Z,1003.02
2022-12-15T00:17:42.176Z,1003.06
2022-12-15T00:18:42.513Z,1002.97
2022-12-15T00:19:42.890Z,1003.06
2022-12-15T00:20:43.233Z,1003.09
2022-12-15T00:21:43.612Z,1003.10
2022-12-15T00:22:44.006Z,1003.11
2022-12-15T00:23:44.331Z,1003.09
2022-12-15T00:24:44.693Z,1003.16
2022-12-15T00:25:45.044Z,1003.11
2022-12-15T00:26:45.383Z,1003.11
2022-12-15T00:27:45.779Z,1003.14
2022-12-15T00:28:46.132Z,1003.15
2022-12-15T00:29:46.473Z,1003.13
2022-12-15T00:30:49.618Z,1003.21
2022-12-15T00:31:47.262Z,1003.22
2022-12-15T00:32:47.592Z,1003.20
2022-12-15T00:33:47.930Z,1003.20
2022-12-15T00:34:48.282Z,1003.15
2022-12-15T00:35:48.651Z,1003.15
2022-12-15T00:36:49.806Z,1003.20
2022-12-15T00:37:49.395Z,1003.25
2022-12-15T00:38:49.690Z,1003.22
2022-12-15T00:39:50.101Z,1003.23
2022-12-15T00:40:50.419Z,1003.17
2022-12-15T00:41:50.813Z,1003.20
2022-12-15T00:42:51.179Z,1003.30
2022-12-15T00:43:51.559Z,1003.34
2022-12-15T00:44:51.894Z,1003.36
2022-12-15T00:45:52.231Z,1003.30
2022-12-15T00:46:52.704Z,1003.22
2022-12-15T00:47:52.980Z,1003.16
2022-12-15T00:48:53.318Z,1003.28
2022-12-15T00:49:53.706Z,1003.30
2022-12-15T00:50:54.060Z,1003.32
2022-12-15T00:51:54.420Z,1003.27
2022-12-15T00:52:54.781Z,1003.25
2022-12-15T00:53:55.127Z,1003.33
2022-12-15T00:54:55.491Z,1003.31
2022-12-15T00:55:55.824Z,1003.28
2022-12-15T00:56:56.211Z,1003.29
2022-12-15T00:57:56.575Z,1003.28
2022-12-15T00:58:56.970Z,1003.33
2022-12-15T00:59:57.269Z,1003.30
2022-12-15T01:00:57.656Z,1003.32
2022-12-15T01:01:58.261Z,1003.31
2022-12-15T01:02:58.603Z,1003.31
2022-12-15T01:03:58.823Z,1003.27
2022-12-15T01:04:59.074Z,1003.35
2022-12-15T01:05:59.462Z,1003.27
2022-12-15T01:06:59.803Z,1003.36
2022-12-15T01:08:00.212Z,1003.42
2022-12-15T01:09:00.544Z,1003.49
2022-12-15T01:10:00.932Z,1003.55
2022-12-15T01:11:01.273Z,1003.61
2022-12-15T01:12:01.619Z,1003.64
2022-12-15T01:13:01.985Z,1003.73
2022-12-15T01:14:02.325Z,1003.73
2022-12-15T01:15:02.687Z,1003.68
2022-12-15T01:16:03.124Z,1003.73
2022-12-15T01:17:03.405Z,1003.72
2022-12-15T01:18:03.774Z,1003.75
2022-12-15T01:19:04.109Z,1003.81
2022-12-15T01:20:04.460Z,1003.82
2022-12-15T01:21:04.819Z,1003.80
2022-12-15T01:22:05.172Z,1003.78
2022-12-15T01:23:05.522Z,1003.85
2022-12-15T01:24:05.863Z,1003.81
2022-12-15T01:25:06.202Z,1003.80
2022-12-15T01:26:06.586Z,1003.84
2022-12-15T01:27:06.928Z,1003.84
2022-12-15T01:28:07.292Z,1003.78
2022-12-15T01:29:07.639Z,1003.78
2022-12-15T01:30:07.995Z,1003.75
2022-12-15T01:31:08.371Z,1003.74
2022-12-15T01:32:08.702Z,1003.77
2022-12-15T01:33:09.109Z,1003.80
2022-12-15T01:34:09.439Z,1003.78
2022-12-15T01:35:09.782Z,1003.85
2022-12-15T01:36:10.161Z,1003.85
2022-12-15T01:37:10.541Z,1003.82
2022-12-15T01:38:10.949Z,1003.83
2022-12-15T01:39:11.248Z,1003.82
2022-12-15T01:40:11.641Z,1003.80
2022-12-15T01:41:11.983Z,1003.71
2022-12-15T01:42:12.362Z,1003.77
2022-12-15T01:43:12.765Z,1003.68
2022-12-15T01:44:13.125Z,1003.67
2022-12-15T01:45:13.486Z,1003.64
2022-12-15T01:46:13.947Z,1003.62
2022-12-15T01:47:14.238Z,1003.68
2022-12-15T01:48:14.566Z,1003.63
2022-12-15T01:49:14.911Z,1003.57
2022-12-15T01:50:15.264Z,1003.62
2022-12-15T01:51:15.636Z,1003.62
2022-12-15T01:52:15.969Z,1003.67
2022-12-15T01:53:16.365Z,1003.60
2022-12-15T01:54:16.760Z,1003.63
2022-12-15T01:55:17.083Z,1003.67
2022-12-15T01:56:17.422Z,1003.66
2022-12-15T01:57:17.810Z,1003.70
2022-12-15T01:58:18.236Z,1003.64
2022-12-15T01:59:18.515Z,1003.64
2022-12-15T02:00:18.859Z,1003.78
2022-12-15T02:01:19.314Z,1003.79
2022-12-15T02:02:19.649Z,1003.90
2022-12-15T02:03:19.992Z,1004.00
2022-12-15T02:04:20.282Z,1004.10
2022-12-15T02:05:20.628Z,1004.30
2022-12-15T02:06:21.000Z,1004.32
2022-12-15T02:07:21.393Z,1004.22
2022-12-15T02:08:21.744Z,1004.16
2022-12-15T02:09:22.095Z,1004.11
2022-12-15T02:10:22.428Z,1004.11
2022-12-15T02:11:22.778Z,1004.08
2022-12-15T02:12:23.167Z,1004.08
2022-12-15T02:13:23.513Z,1004.13
2022-12-15T02:14:23.863Z,1004.10
2022-12-15T02:15:24.223Z,1004.08
2022-12-15T02:16:24.604Z,1004.12
2022-12-15T02:17:24.935Z,1004.09
2022-12-15T02:18:25.291Z,1004.06
2022-12-15T02:19:25.670Z,1004.06
2022-12-15T02:20:26.004Z,1004.06
2022-12-15T02:21:26.380Z,1004.08
2022-12-15T02:22:26.764Z,1004.00
2022-12-15T02:23:27.250Z,1004.02
2022-12-15T02:24:27.488Z,1004.03
2022-12-15T02:25:27.834Z,1004.00
2022-12-15T02:26:28.214Z,1003.98
2022-12-15T02:27:28.581Z,1004.03
2022-12-15T02:28:28.983Z,1003.97
2022-12-15T02:29:29.316Z,1004.00
2022-12-15T02:30:29.712Z,1003.95
2022-12-15T02:31:30.064Z,1003.99
2022-12-15T02:32:30.403Z,1003.99
2022-12-15T02:33:31.230Z,1003.99
2022-12-15T02:34:31.126Z,1003.92
2022-12-15T02:35:31.488Z,1003.95
2022-12-15T02:36:31.825Z,1003.96
2022-12-15T02:37:32.186Z,1004.01
2022-12-15T02:38:32.609Z,1004.12
2022-12-15T02:39:32.930Z,1004.09
2022-12-15T02:40:33.258Z,1004.13
2022-12-15T02:41:33.609Z,1004.21
2022-12-15T02:42:33.957Z,1004.27
2022-12-15T02:43:34.608Z,1004.28
2022-12-15T02:44:34.676Z,1004.21
2022-12-15T02:45:35.049Z,1004.17
2022-12-15T02:46:35.371Z,1004.10
2022-12-15T02:47:35.716Z,1004.07
2022-12-15T02:48:36.125Z,1004.06
2022-12-15T02:49:36.462Z,1004.00
2022-12-15T02:50:36.818Z,1003.97
2022-12-15T02:51:37.162Z,1003.98
2022-12-15T02:52:37.520Z,1003.95
2022-12-15T02:53:37.927Z,1003.94
2022-12-15T02:54:38.275Z,1003.93
2022-12-15T02:55:38.615Z,1003.94
2022-12-15T02:56:38.970Z,1003.93
2022-12-15T02:57:39.381Z,1003.91
2022-12-15T02:58:39.752Z,1003.93
2022-12-15T02:59:40.102Z,1003.86
2022-12-15T03:00:40.580Z,1003.83
2022-12-15T03:01:40.963Z,1003.84
2022-12-15T03:02:41.342Z,1003.84
2022-12-15T03:03:41.578Z,1003.84
2022-12-15T03:04:41.886Z,1003.81
2022-12-15T03:05:42.264Z,1003.87
2022-12-15T03:06:42.640Z,1003.91
2022-12-15T03:07:43.061Z,1003.92
2022-12-15T03:08:43.417Z,1003.92
2022-12-15T03:09:43.764Z,1003.91
2022-12-15T03:10:44.127Z,1003.97
2022-12-15T03:11:44.469Z,1003.95
2022-12-15T03:12:44.853Z,1004.00
2022-12-15T03:13:45.212Z,1004.05
2022-12-15T03:14:45.551Z,1003.95
2022-12-15T03:15:45.903Z,1004.00
2022-12-15T03:16:46.290Z,1003.99
2022-12-15T03:17:46.624Z,1003.98
2022-12-15T03:18:47.021Z,1003.95
2022-12-15T03:19:47.429Z,1003.99
2022-12-15T03:20:47.736Z,1003.94
2022-12-15T03:21:48.083Z,1003.94
2022-12-15T03:22:48.429Z,1003.99
2022-12-15T03:23:48.791Z,1004.01
2022-12-15T03:24:49.131Z,1004.02
2022-12-15T03:25:49.772Z,1004.00
2022-12-15T03:26:49.837Z,1003.93
2022-12-15T03:27:50.215Z,1004.00
2022-12-15T03:28:50.631Z,1003.93
2022-12-15T03:29:50.973Z,1004.00
2022-12-15T03:30:51.325Z,1003.97
2022-12-15T03:31:51.752Z,1004.00
2022-12-15T03:32:52.056Z,1004.00
2022-12-15T03:33:52.412Z,1003.93
2022-12-15T03:34:52.761Z,1003.92
2022-12-15T03:35:53.111Z,1003.92
2022-12-15T03:36:53.445Z,1003.85
2022-12-15T03:37:53.801Z,1003.91
2022-12-15T03:38:54.230Z,1003.88
2022-12-15T03:39:54.529Z,1003.91
2022-12-15T03:40:54.905Z,1003.88
2022-12-15T03:41:55.259Z,1003.87
2022-12-15T03:42:55.642Z,1003.90
2022-12-15T03:43:55.996Z,1003.89
2022-12-15T03:44:56.332Z,1003.95
2022-12-15T03:45:56.736Z,1003.94
2022-12-15T03:47:02.729Z,1003.97
2022-12-15T03:47:57.428Z,1003.99
2022-12-15T03:48:57.822Z,1004.00
2022-12-15T03:49:58.141Z,1003.97
2022-12-15T03:50:58.480Z,1003.99
2022-12-15T03:51:58.830Z,1004.01
2022-12-15T03:52:59.200Z,1004.01
2022-12-15T03:53:59.609Z,1004.03
2022-12-15T03:54:59.929Z,1004.00
2022-12-15T03:56:00.271Z,1004.02
2022-12-15T03:57:00.660Z,1004.01
2022-12-15T03:58:00.995Z,1004.05
2022-12-15T03:59:01.405Z,1004.04
2022-12-15T04:00:01.739Z,1004.04
2022-12-15T04:01:02.171Z,1004.04
2022-12-15T04:02:02.744Z,1003.98
2022-12-15T04:03:02.981Z,1004.01
2022-12-15T04:04:03.224Z,1003.97
2022-12-15T04:05:03.558Z,1003.98
2022-12-15T04:06:03.959Z,1004.00
2022-12-15T04:07:04.271Z,1004.03
2022-12-15T04:08:04.601Z,1004.04
2022-12-15T04:09:05.003Z,1004.09
2022-12-15T04:10:05.364Z,1004.23
2022-12-15T04:11:05.708Z,1004.24
2022-12-15T04:12:06.086Z,1004.25
2022-12-15T04:13:06.431Z,1004.21
2022-12-15T04:14:06.859Z,1004.30
2022-12-15T04:15:07.158Z,1004.22
2022-12-15T04:16:07.538Z,1004.29
2022-12-15T04:17:07.945Z,1004.26
2022-12-15T04:18:08.259Z,1004.09
2022-12-15T04:19:08.628Z,1004.17
2022-12-15T04:20:08.991Z,1004.16
2022-12-15T04:21:09.335Z,1004.16
2022-12-15T04:22:13.705Z,1004.18
2022-12-15T04:23:10.037Z,1004.14
2022-12-15T04:24:10.397Z,1004.10
2022-12-15T04:25:10.803Z,1004.17
2022-12-15T04:26:11.111Z,1004.16
2022-12-15T04:27:11.501Z,1004.19
2022-12-15T04:28:11.836Z,1004.11
2022-12-15T04:29:12.203Z,1004.13
2022-12-15T04:30:12.625Z,1004.13
2022-12-15T04:31:13.023Z,1004.07
2022-12-15T04:32:13.287Z,1004.09
2022-12-15T04:33:13.631Z,1004.06
2022-12-15T04:34:13.995Z,1004.07
2022-12-15T04:35:14.333Z,1004.12
2022-12-15T04:36:14.684Z,1004.12
2022-12-15T04:37:15.051Z,1004.13
2022-12-15T04:38:15.448Z,1004.18
2022-12-15T04:39:15.830Z,1004.16
2022-12-15T04:40:16.133Z,1004.19
2022-12-15T04:41:16.487Z,1004.16
2022-12-15T04:42:16.869Z,1004.18
2022-12-15T04:43:17.240Z,1004.13
2022-12-15T04:44:17.634Z,1004.13
2022-12-15T04:45:20.834Z,1004.14
2022-12-15T04:46:18.355Z,1004.15
2022-12-15T04:47:18.681Z,1004.31
2022-12-15T04:48:19.029Z,1004.29
2022-12-15T04:49:19.431Z,1004.34
2022-12-15T04:50:19.767Z,1004.35
2022-12-15T04:51:20.173Z,1004.33
2022-12-15T04:52:20.522Z,1004.30
2022-12-15T04:53:20.865Z,1004.37
2022-12-15T04:54:21.272Z,1004.30
2022-12-15T04:55:21.606Z,1004.34
2022-12-15T04:56:21.949Z,1004.29
2022-12-15T04:57:22.291Z,1004.28
2022-12-15T04:58:22.684Z,1004.31
2022-12-15T04:59:23.034Z,1004.28
2022-12-15T05:00:23.381Z,1004.28
2022-12-15T05:01:23.864Z,1004.29
2022-12-15T05:02:24.286Z,1004.27
2022-12-15T05:03:24.466Z,1004.30
2022-12-15T05:04:24.843Z,1004.29
2022-12-15T05:05:25.186Z,1004.31
2022-12-15T05:06:25.534Z,1004.26
2022-12-15T05:07:25.944Z,1004.30
2022-12-15T05:08:26.283Z,1004.28
2022-12-15T05:09:26.648Z,1004.30
2022-12-15T05:10:26.997Z,1004.31
2022-12-15T05:11:27.410Z,1004.31
2022-12-15T05:12:27.742Z,1004.22
2022-12-15T05:13:28.365Z,1004.20
2022-12-15T05:14:28.506Z,1004.25
2022-12-15T05:15:28.895Z,1004.22
2022-12-15T05:16:29.197Z,1004.22
2022-12-15T05:17:29.657Z,1004.27
2022-12-15T05:18:29.922Z,1004.22
2022-12-15T05:19:30.298Z,1004.28
2022-12-15T05:20:30.650Z,1004.25
2022-12-15T05:21:31.027Z,1004.29
2022-12-15T05:22:31.377Z,1004.23
2022-12-15T05:23:32.151Z,1004.32
2022-12-15T05:24:32.186Z,1004.26
2022-12-15T05:25:32.485Z,1004.35
2022-12-15T05:26:32.854Z,1004.27
2022-12-15T05:27:33.191Z,1004.33
2022-12-15T05:28:33.569Z,1004.35
2022-12-15T05:29:33.927Z,1004.34
2022-12-15T05:30:34.277Z,1004.38
2022-12-15T05:31:34.711Z,1004.35
2022-12-15T05:32:34.987Z,1004.26
2022-12-15T05:33:35.327Z,1004.29
2022-12-15T05:34:35.745Z,1004.36
2022-12-15T05:35:36.129Z,1004.37
2022-12-15T05:36:36.432Z,1004.41
2022-12-15T05:37:36.813Z,1004.48
2022-12-15T05:38:37.199Z,1004.43
2022-12-15T05:39:37.608Z,1004.45
2022-12-15T05:40:37.892Z,1004.51
2022-12-15T05:41:38.234Z,1004.45
2022-12-15T05:42:38.616Z,1004.49
2022-12-15T05:43:38.963Z,1004.48
2022-12-15T05:44:39.358Z,1004.42
2022-12-15T05:45:39.695Z,1004.46
2022-12-15T05:46:40.240Z,1004.50
2022-12-15T05:47:40.403Z,1004.50
2022-12-15T05:48:40.774Z,1004.46
2022-12-15T05:49:41.201Z,1004.47
2022-12-15T05:50:41.524Z,1004.48
2022-12-15T05:51:41.902Z,1004.48
2022-12-15T05:52:46.262Z,1004.55
2022-12-15T05:53:42.646Z,1004.55
2022-12-15T05:54:43.025Z,1004.55
2022-12-15T05:55:43.390Z,1004.50
2022-12-15T05:56:43.742Z,1004.53
2022-12-15T05:57:44.089Z,1004.60
2022-12-15T05:58:45.649Z,1004.55
2022-12-15T05:59:44.807Z,1004.56
2022-12-15T06:00:45.147Z,1004.62
2022-12-15T06:01:45.549Z,1004.68
2022-12-15T06:02:45.908Z,1004.66
2022-12-15T06:03:46.226Z,1004.65
2022-12-15T06:04:46.706Z,1004.70
2022-12-15T06:05:51.697Z,1004.72
2022-12-15T06:06:47.338Z,1004.68
2022-12-15T06:07:47.679Z,1004.76
2022-12-15T06:08:50.042Z,1004.77
2022-12-15T06:09:48.402Z,1004.70
2022-12-15T06:10:48.745Z,1004.75
2022-12-15T06:11:49.089Z,1004.75
2022-12-15T06:12:49.473Z,1004.74
2022-12-15T06:13:49.821Z,1004.77
2022-12-15T06:14:50.183Z,1004.77
2022-12-15T06:15:50.591Z,1004.76
2022-12-15T06:16:51.783Z,1004.74
2022-12-15T06:17:51.218Z,1004.76
2022-12-15T06:18:51.613Z,1004.77
2022-12-15T06:19:51.957Z,1004.70
2022-12-15T06:20:52.334Z,1004.79
2022-12-15T06:21:52.716Z,1004.81
2022-12-15T06:22:53.058Z,1004.71
2022-12-15T06:23:53.446Z,1004.77
2022-12-15T06:24:53.804Z,1004.80
2022-12-15T06:25:54.138Z,1004.77
2022-12-15T06:26:54.539Z,1004.80
2022-12-15T06:28:01.404Z,1004.76
2022-12-15T06:28:55.267Z,1004.79
2022-12-15T06:29:55.609Z,1004.83
2022-12-15T06:30:56.005Z,1004.82
2022-12-15T06:31:56.395Z,1004.84
2022-12-15T06:32:56.705Z,1004.85
2022-12-15T06:34:01.703Z,1004.81
2022-12-15T06:34:57.431Z,1004.84
2022-12-15T06:35:57.792Z,1004.85
2022-12-15T06:36:58.126Z,1004.86
2022-12-15T06:37:58.493Z,1004.86
2022-12-15T06:38:58.874Z,1004.86
2022-12-15T06:39:59.290Z,1004.92
2022-12-15T06:40:59.631Z,1004.86
2022-12-15T06:41:59.998Z,1004.86
2022-12-15T06:43:00.365Z,1004.93
2022-12-15T06:44:00.759Z,1004.99
2022-12-15T06:45:01.130Z,1005.00
2022-12-15T06:46:01.491Z,1004.94
2022-12-15T06:47:01.892Z,1005.01
2022-12-15T06:48:02.213Z,1005.01
2022-12-15T06:49:02.450Z,1005.03
2022-12-15T06:50:02.645Z,1005.07
2022-12-15T06:51:02.928Z,1005.02
2022-12-15T06:52:03.217Z,1005.08
2022-12-15T06:53:03.387Z,1005.05
2022-12-15T06:54:03.829Z,1005.09
2022-12-15T06:55:04.105Z,1005.11
2022-12-15T06:56:04.244Z,1005.06
2022-12-15T06:57:04.409Z,1005.11
2022-12-15T06:58:04.586Z,1005.12
2022-12-15T06:59:04.752Z,1005.06
2022-12-15T07:00:04.960Z,1005.09
2022-12-15T07:01:05.094Z,1005.10
2022-12-15T07:02:05.527Z,1005.12
2022-12-15T07:03:05.799Z,1005.15
2022-12-15T07:04:06.279Z,1005.20
2022-12-15T07:05:06.040Z,1005.18
2022-12-15T07:06:06.295Z,1005.21
2022-12-15T07:07:06.582Z,1005.15
2022-12-15T07:08:06.792Z,1005.14
2022-12-15T07:09:06.922Z,1005.18
2022-12-15T07:10:07.123Z,1005.17
2022-12-15T07:11:07.265Z,1005.16
2022-12-15T07:12:07.435Z,1005.17
2022-12-15T07:13:07.725Z,1005.21
2022-12-15T07:14:08.030Z,1005.24
2022-12-15T07:15:08.204Z,1005.22
2022-12-15T07:16:08.402Z,1005.23
2022-12-15T07:17:08.537Z,1005.26
2022-12-15T07:18:08.700Z,1005.28
2022-12-15T07:19:08.878Z,1005.25
2022-12-15T07:20:09.096Z,1005.31
2022-12-15T07:21:09.228Z,1005.26
2022-12-15T07:22:09.411Z,1005.29
2022-12-15T07:23:09.588Z,1005.29
2022-12-15T07:24:09.759Z,1005.35
2022-12-15T07:25:09.956Z,1005.38
2022-12-15T07:26:11.772Z,1005.44
2022-12-15T07:27:10.289Z,1005.47
2022-12-15T07:28:10.468Z,1005.57
2022-12-15T07:29:10.647Z,1005.56
2022-12-15T07:30:10.964Z,1005.61
2022-12-15T07:31:11.229Z,1005.70
2022-12-15T07:32:11.429Z,1005.69
2022-12-15T07:33:11.597Z,1005.72
2022-12-15T07:34:12.010Z,1005.71
2022-12-15T07:35:12.210Z,1005.76
2022-12-15T07:36:12.494Z,1005.78
2022-12-15T07:37:12.667Z,1005.69
2022-12-15T07:38:12.857Z,1005.74
2022-12-15T07:39:13.040Z,1005.71
2022-12-15T07:40:13.257Z,1005.60
2022-12-15T07:41:13.392Z,1005.70
2022-12-15T07:42:13.721Z,1005.66
2022-12-15T07:43:13.914Z,1005.72
2022-12-15T07:44:14.176Z,1005.67
2022-12-15T07:45:14.505Z,1005.76
2022-12-15T07:46:14.741Z,1005.67
2022-12-15T07:47:14.943Z,1005.75
2022-12-15T07:48:15.143Z,1005.81
2022-12-15T07:49:15.335Z,1005.83
2022-12-15T07:50:15.647Z,1005.88
2022-12-15T07:51:19.620Z,1005.91
2022-12-15T07:52:16.022Z,1005.93
2022-12-15T07:53:16.145Z,1005.91
2022-12-15T07:54:16.319Z,1005.95
2022-12-15T07:55:16.506Z,1005.93
2022-12-15T07:56:16.657Z,1005.93
2022-12-15T07:57:16.854Z,1005.94
2022-12-15T07:58:17.013Z,1005.89
2022-12-15T07:59:17.302Z,1005.97
2022-12-15T08:00:17.494Z,1005.94
2022-12-15T08:01:17.781Z,1005.84
2022-12-15T08:02:18.397Z,1005.91
2022-12-15T08:03:18.289Z,1005.94
2022-12-15T08:04:18.339Z,1005.93
2022-12-15T08:05:18.639Z,1005.95
2022-12-15T08:06:18.821Z,1005.93
2022-12-15T08:07:19.130Z,1006.00
2022-12-15T08:08:19.302Z,1005.98
2022-12-15T08:09:19.476Z,1006.05
2022-12-15T08:10:19.707Z,1005.93
2022-12-15T08:11:19.821Z,1005.97
2022-12-15T08:12:19.984Z,1006.02
2022-12-15T08:14:00.280Z,1006.06
2022-12-15T08:14:20.772Z,1006.10
2022-12-15T08:15:20.536Z,1006.18
2022-12-15T08:16:20.856Z,1006.15
2022-12-15T08:17:20.998Z,1006.16
2022-12-15T08:18:21.307Z,1006.17
2022-12-15T08:19:21.461Z,1006.19
2022-12-15T08:20:21.669Z,1006.17
2022-12-15T08:21:21.803Z,1006.17
2022-12-15T08:22:22.098Z,1006.20
2022-12-15T08:23:22.285Z,1006.20
2022-12-15T08:24:22.455Z,1006.23
2022-12-15T08:25:22.650Z,1006.23
2022-12-15T08:26:28.468Z,1006.19
2022-12-15T08:27:23.004Z,1006.23
2022-12-15T08:28:23.184Z,1006.29
2022-12-15T08:29:53.183Z,1006.26
2022-12-15T08:30:23.587Z,1006.22
2022-12-15T08:31:23.824Z,1006.29
2022-12-15T08:32:24.009Z,1006.29
2022-12-15T08:33:24.114Z,1006.28
2022-12-15T08:34:24.297Z,1006.31
2022-12-15T08:35:55.169Z,1006.35
2022-12-15T08:36:24.702Z,1006.33
2022-12-15T08:37:24.926Z,1006.28
2022-12-15T08:38:25.063Z,1006.27
2022-12-15T08:39:25.244Z,1006.28
2022-12-15T08:40:25.492Z,1006.23
2022-12-15T08:41:25.607Z,1006.26
2022-12-15T08:42:25.793Z,1006.17
2022-12-15T08:43:25.977Z,1006.19
2022-12-15T08:44:26.143Z,1006.19
2022-12-15T08:45:26.342Z,1006.18
2022-12-15T08:46:26.575Z,1006.17
2022-12-15T08:47:26.692Z,1006.11
2022-12-15T08:48:26.857Z,1006.08
2022-12-15T08:49:27.044Z,1006.13
2022-12-15T08:50:27.254Z,1006.10
2022-12-15T08:51:27.429Z,1006.14
2022-12-15T08:52:27.636Z,1006.10
2022-12-15T08:53:32.112Z,1006.13
2022-12-15T08:54:28.091Z,1006.16
2022-12-15T08:55:28.272Z,1006.10
2022-12-15T08:56:28.411Z,1006.08
2022-12-15T08:57:28.595Z,1006.11
2022-12-15T08:58:28.754Z,1006.23
2022-12-15T08:59:28.927Z,1006.24
2022-12-15T09:00:29.155Z,1006.26
2022-12-15T09:01:29.406Z,1006.25
2022-12-15T09:02:29.648Z,1006.25
2022-12-15T09:03:30.077Z,1006.17
2022-12-15T09:04:29.831Z,1006.15
2022-12-15T09:05:30.020Z,1006.15
2022-12-15T09:06:30.196Z,1006.18
2022-12-15T09:07:30.368Z,1006.19
2022-12-15T09:08:30.543Z,1006.25
2022-12-15T09:09:30.713Z,1006.23
2022-12-15T09:10:30.930Z,1006.18
2022-12-15T09:11:31.105Z,1006.21
2022-12-15T09:12:31.295Z,1006.21
2022-12-15T09:13:31.902Z,1006.34
2022-12-15T09:14:31.663Z,1006.39
2022-12-15T09:16:07.097Z,1006.45
2022-12-15T09:16:32.084Z,1006.50
2022-12-15T09:17:32.237Z,1006.52
2022-12-15T09:18:32.415Z,1006.51
2022-12-15T09:19:32.597Z,1006.54
2022-12-15T09:20:32.787Z,1006.53
2022-12-15T09:21:32.997Z,1006.56
2022-12-15T09:22:33.160Z,1006.50
2022-12-15T09:23:33.894Z,1006.47
2022-12-15T09:24:35.301Z,1006.47
2022-12-15T09:25:33.751Z,1006.44
2022-12-15T09:26:33.922Z,1006.44
2022-12-15T09:27:34.091Z,1006.39
2022-12-15T09:28:34.271Z,1006.42
2022-12-15T09:29:34.432Z,1006.48
2022-12-15T09:30:34.699Z,1006.52
2022-12-15T09:31:34.828Z,1006.56
2022-12-15T09:32:35.014Z,1006.55
2022-12-15T09:33:35.558Z,1006.59
2022-12-15T09:34:35.384Z,1006.58
2022-12-15T09:35:35.586Z,1006.47
2022-12-15T09:36:35.754Z,1006.52
2022-12-15T09:37:35.925Z,1006.48
2022-12-15T09:38:36.100Z,1006.56
2022-12-15T09:39:36.284Z,1006.64
2022-12-15T09:40:36.525Z,1006.64
2022-12-15T09:41:36.630Z,1006.66
2022-12-15T09:42:36.945Z,1006.68
2022-12-15T09:43:41.420Z,1006.68
2022-12-15T09:44:37.282Z,1006.69
2022-12-15T09:45:37.467Z,1006.66
2022-12-15T09:46:37.712Z,1006.69
2022-12-15T09:47:37.827Z,1006.64
2022-12-15T09:48:38.011Z,1006.59
2022-12-15T09:49:38.179Z,1006.62
2022-12-15T09:50:38.386Z,1006.52
2022-12-15T09:51:38.548Z,1006.50
2022-12-15T09:52:38.771Z,1006.48
2022-12-15T09:53:55.829Z,1006.46
2022-12-15T09:54:39.215Z,1006.36
2022-12-15T09:55:39.347Z,1006.39
2022-12-15T09:56:39.522Z,1006.43
2022-12-15T09:57:39.712Z,1006.39
2022-12-15T09:58:39.909Z,1006.46
2022-12-15T09:59:40.077Z,1006.41
2022-12-15T10:00:41.847Z,1006.45
2022-12-15T10:01:40.513Z,1006.42
2022-12-15T10:02:40.641Z,1006.50
2022-12-15T10:03:40.948Z,1006.48
2022-12-15T10:04:40.984Z,1006.53
2022-12-15T10:06:06.169Z,1006.49
2022-12-15T10:06:41.342Z,1006.39
2022-12-15T10:07:41.513Z,1006.48
2022-12-15T10:08:41.685Z,1006.51
2022-12-15T10:09:41.855Z,1006.41
2022-12-15T10:10:42.063Z,1006.48
2022-12-15T10:11:42.251Z,1006.40
2022-12-15T10:12:51.719Z,1006.38
2022-12-15T10:13:42.625Z,1006.35
2022-12-15T10:14:42.810Z,1006.35
2022-12-15T10:15:43.034Z,1006.34
2022-12-15T10:16:43.185Z,1006.35
2022-12-15T10:17:43.347Z,1006.37
2022-12-15T10:18:43.555Z,1006.34
2022-12-15T10:19:43.739Z,1006.42
2022-12-15T10:20:43.918Z,1006.40
2022-12-15T10:21:44.090Z,1006.40
2022-12-15T10:22:44.293Z,1006.39
2022-12-15T10:23:44.572Z,1006.32
2022-12-15T10:25:09.295Z,1006.37
2022-12-15T14:20:58.880Z,1006.68
2022-12-15T14:22:00.082Z,1006.67
2022-12-15T14:23:00.192Z,1006.67
2022-12-15T14:25:00.555Z,1006.67
2022-12-15T14:26:00.783Z,1006.70
2022-12-15T14:27:00.904Z,1006.64
2022-12-15T14:28:01.059Z,1006.64
2022-12-15T14:29:01.255Z,1006.68
2022-12-15T14:30:01.403Z,1006.62
2022-12-15T14:31:01.580Z,1006.68
2022-12-15T14:32:02.843Z,1006.66
2022-12-15T14:33:01.932Z,1006.69
2022-12-15T14:34:02.095Z,1006.61
2022-12-15T14:35:02.292Z,1006.66
2022-12-15T14:36:02.472Z,1006.66
2022-12-15T14:37:02.808Z,1006.65
2022-12-15T14:38:02.927Z,1006.63
2022-12-15T14:39:03.722Z,1006.65
2022-12-15T14:40:03.286Z,1006.66
2022-12-15T14:41:03.502Z,1006.69
2022-12-15T14:42:03.674Z,1006.73
2022-12-15T14:43:03.805Z,1006.78
2022-12-15T14:44:32.079Z,1006.70
2022-12-15T14:45:04.151Z,1006.73
2022-12-15T14:46:04.379Z,1006.73
2022-12-15T14:47:04.508Z,1006.75
2022-12-15T14:49:04.964Z,1006.83
2022-12-15T14:50:05.140Z,1006.78
2022-12-15T14:51:05.303Z,1006.83
2022-12-15T14:52:05.541Z,1006.86
2022-12-15T14:53:05.672Z,1006.85
2022-12-15T14:54:05.844Z,1006.82
2022-12-15T14:55:06.014Z,1006.83
2022-12-15T14:56:06.175Z,1006.78
2022-12-15T14:57:06.387Z,1006.79
2022-12-15T14:58:06.551Z,1006.80
2022-12-15T14:59:06.743Z,1006.78
2022-12-15T15:00:06.911Z,1006.80
2022-12-15T15:01:07.077Z,1006.80
2022-12-15T15:02:07.403Z,1006.84
2022-12-15T15:03:17.383Z,1006.87
2022-12-15T15:04:07.618Z,1006.89
2022-12-15T15:05:07.787Z,1006.87
2022-12-15T15:06:07.941Z,1006.91
2022-12-15T15:07:08.146Z,1006.88
2022-12-15T15:08:08.285Z,1006.88
2022-12-15T15:09:08.461Z,1006.83
2022-12-15T15:10:08.777Z,1006.87
2022-12-15T15:11:08.896Z,1006.87
2022-12-15T15:12:09.079Z,1006.82
2022-12-15T15:13:09.364Z,1006.88
2022-12-15T15:14:09.627Z,1006.88
2022-12-15T15:15:09.904Z,1006.89
2022-12-15T15:16:10.180Z,1006.88
2022-12-15T15:17:10.452Z,1006.91
2022-12-15T15:18:10.639Z,1006.92
2022-12-15T15:19:10.943Z,1006.95
2022-12-15T15:20:11.099Z,1006.96
2022-12-15T15:21:11.391Z,1006.97
2022-12-15T15:22:11.697Z,1006.98
2022-12-15T15:23:11.850Z,1006.95
2022-12-15T15:24:12.154Z,1006.97
2022-12-15T15:25:12.439Z,1006.97
2022-12-15T15:26:12.716Z,1006.94
2022-12-15T15:27:12.920Z,1006.93
2022-12-15T15:28:13.159Z,1006.93
2022-12-15T15:29:13.495Z,1006.96
2022-12-15T15:30:13.731Z,1007.02
2022-12-15T15:31:14.035Z,1006.98
2022-12-15T15:32:14.317Z,1006.98
2022-12-15T15:33:14.567Z,1006.97
2022-12-15T15:34:14.862Z,1007.00
2022-12-15T15:35:15.141Z,1007.05
2022-12-15T15:36:15.450Z,1006.99
2022-12-15T15:37:18.179Z,1006.98
2022-12-15T15:38:15.873Z,1006.97
2022-12-15T15:39:16.213Z,1007.08
2022-12-15T15:40:16.593Z,1007.08
2022-12-15T15:41:16.952Z,1006.97
2022-12-15T15:42:17.162Z,1007.01
2022-12-15T15:43:17.480Z,1007.05
2022-12-15T15:44:17.738Z,1007.06
2022-12-15T15:45:18.142Z,1007.08
2022-12-15T15:46:18.407Z,1007.13
2022-12-15T15:47:18.673Z,1007.13
2022-12-15T15:48:18.940Z,1007.02
2022-12-15T15:49:19.227Z,1007.06
2022-12-15T15:50:19.725Z,1006.97
2022-12-15T15:51:19.960Z,1007.03
2022-12-15T15:52:20.394Z,1007.08
2022-12-15T15:53:20.707Z,1007.04
2022-12-15T15:54:21.056Z,1007.09
2022-12-15T15:55:21.411Z,1007.07
2022-12-15T15:56:21.774Z,1007.10
2022-12-15T15:57:22.656Z,1007.10
2022-12-15T15:58:22.462Z,1007.11
2022-12-15T15:59:22.806Z,1007.06
2022-12-15T16:00:23.182Z,1007.08
2022-12-15T16:01:23.662Z,1007.12
2022-12-15T16:02:24.094Z,1007.16
2022-12-15T16:03:24.487Z,1007.13
2022-12-15T16:04:24.585Z,1007.19
2022-12-15T16:05:24.936Z,1007.15
2022-12-15T16:06:25.303Z,1007.12